sensor_id;sensor_type;location;lat;lon;timestamp;temperature;humidity
23124;DHT22;11731;48.592;8.858;2022-08-03T00:01:40;23.40;94.80
23124;DHT22;11731;48.592;8.858;2022-08-03T00:04:08;23.40;94.90
23124;DHT22;11731;48.592;8.858;2022-08-03T00:06:35;23.40;94.90
23124;DHT22;11731;48.592;8.858;2022-08-03T00:09:16;23.50;95.10
23124;DHT22;11731;48.592;8.858;2022-08-03T00:11:46;23.40;95.00
23124;DHT22;11731;48.592;8.858;2022-08-03T00:14:13;23.30;94.70
23124;DHT22;11731;48.592;8.858;2022-08-03T00:16:40;23.00;94.30
23124;DHT22;11731;48.592;8.858;2022-08-03T00:19:07;22.40;94.70
23124;DHT22;11731;48.592;8.858;2022-08-03T00:21:34;22.60;94.30
23124;DHT22;11731;48.592;8.858;2022-08-03T00:24:51;22.60;94.40
23124;DHT22;11731;48.592;8.858;2022-08-03T00:27:18;22.60;93.90
23124;DHT22;11731;48.592;8.858;2022-08-03T00:29:45;22.80;94.00
23124;DHT22;11731;48.592;8.858;2022-08-03T00:32:12;22.70;93.40
23124;DHT22;11731;48.592;8.858;2022-08-03T00:34:39;22.60;94.00
23124;DHT22;11731;48.592;8.858;2022-08-03T00:37:06;22.60;94.50
23124;DHT22;11731;48.592;8.858;2022-08-03T00:39:33;22.40;95.00
23124;DHT22;11731;48.592;8.858;2022-08-03T00:42:03;22.10;95.10
23124;DHT22;11731;48.592;8.858;2022-08-03T00:44:30;21.90;95.80
23124;DHT22;11731;48.592;8.858;2022-08-03T00:46:57;21.80;96.30
23124;DHT22;11731;48.592;8.858;2022-08-03T00:49:24;21.60;96.40
23124;DHT22;11731;48.592;8.858;2022-08-03T00:51:51;21.70;96.30
23124;DHT22;11731;48.592;8.858;2022-08-03T00:54:52;21.30;96.90
23124;DHT22;11731;48.592;8.858;2022-08-03T00:57:11;21.30;96.80
23124;DHT22;11731;48.592;8.858;2022-08-03T00:59:38;21.60;96.30
23124;DHT22;11731;48.592;8.858;2022-08-03T01:02:05;21.80;96.10
23124;DHT22;11731;48.592;8.858;2022-08-03T01:04:32;21.50;96.70
23124;DHT22;11731;48.592;8.858;2022-08-03T01:07:05;21.50;96.80
23124;DHT22;11731;48.592;8.858;2022-08-03T01:09:38;21.70;96.50
23124;DHT22;11731;48.592;8.858;2022-08-03T01:12:12;21.90;96.00
23124;DHT22;11731;48.592;8.858;2022-08-03T01:14:45;21.90;96.20
23124;DHT22;11731;48.592;8.858;2022-08-03T01:17:22;21.80;96.20
23124;DHT22;11731;48.592;8.858;2022-08-03T01:19:55;21.80;96.30
23124;DHT22;11731;48.592;8.858;2022-08-03T01:26:02;21.80;96.30
23124;DHT22;11731;48.592;8.858;2022-08-03T01:28:53;21.90;96.80
23124;DHT22;11731;48.592;8.858;2022-08-03T01:31:48;21.90;96.20
23124;DHT22;11731;48.592;8.858;2022-08-03T01:34:28;21.80;96.10
23124;DHT22;11731;48.592;8.858;2022-08-03T01:36:58;21.70;96.30
23124;DHT22;11731;48.592;8.858;2022-08-03T01:39:31;21.80;96.20
23124;DHT22;11731;48.592;8.858;2022-08-03T01:42:00;21.70;96.30
23124;DHT22;11731;48.592;8.858;2022-08-03T01:44:34;21.50;96.50
23124;DHT22;11731;48.592;8.858;2022-08-03T01:47:04;21.60;96.50
23124;DHT22;11731;48.592;8.858;2022-08-03T01:49:36;21.50;96.40
23124;DHT22;11731;48.592;8.858;2022-08-03T01:52:05;21.50;96.40
23124;DHT22;11731;48.592;8.858;2022-08-03T01:54:35;21.60;96.30
23124;DHT22;11731;48.592;8.858;2022-08-03T01:57:03;21.70;96.20
23124;DHT22;11731;48.592;8.858;2022-08-03T01:59:32;21.80;96.30
23124;DHT22;11731;48.592;8.858;2022-08-03T02:02:01;21.70;96.40
23124;DHT22;11731;48.592;8.858;2022-08-03T02:04:30;21.70;96.40
23124;DHT22;11731;48.592;8.858;2022-08-03T02:06:58;21.70;96.20
23124;DHT22;11731;48.592;8.858;2022-08-03T02:09:27;21.80;96.30
23124;DHT22;11731;48.592;8.858;2022-08-03T02:11:56;21.70;96.30
23124;DHT22;11731;48.592;8.858;2022-08-03T02:14:24;21.80;96.40
23124;DHT22;11731;48.592;8.858;2022-08-03T02:16:52;21.90;96.20
23124;DHT22;11731;48.592;8.858;2022-08-03T02:19:20;21.90;96.30
23124;DHT22;11731;48.592;8.858;2022-08-03T02:21:50;21.70;96.30
23124;DHT22;11731;48.592;8.858;2022-08-03T02:24:18;21.70;96.30
23124;DHT22;11731;48.592;8.858;2022-08-03T02:26:46;21.80;96.40
23124;DHT22;11731;48.592;8.858;2022-08-03T02:29:20;21.80;96.30
23124;DHT22;11731;48.592;8.858;2022-08-03T02:31:48;21.80;96.20
23124;DHT22;11731;48.592;8.858;2022-08-03T02:34:17;21.90;96.00
23124;DHT22;11731;48.592;8.858;2022-08-03T02:36:52;21.70;96.10
23124;DHT22;11731;48.592;8.858;2022-08-03T02:39:22;21.50;96.20
23124;DHT22;11731;48.592;8.858;2022-08-03T02:41:51;21.30;96.80
23124;DHT22;11731;48.592;8.858;2022-08-03T02:44:22;21.10;96.80
23124;DHT22;11731;48.592;8.858;2022-08-03T02:46:54;20.80;97.10
23124;DHT22;11731;48.592;8.858;2022-08-03T02:49:22;21.20;96.80
23124;DHT22;11731;48.592;8.858;2022-08-03T02:51:53;21.30;96.50
23124;DHT22;11731;48.592;8.858;2022-08-03T02:54:22;21.50;96.30
23124;DHT22;11731;48.592;8.858;2022-08-03T02:56:51;21.60;96.00
23124;DHT22;11731;48.592;8.858;2022-08-03T02:59:20;21.50;96.10
23124;DHT22;11731;48.592;8.858;2022-08-03T03:01:48;21.60;96.10
23124;DHT22;11731;48.592;8.858;2022-08-03T03:04:15;21.80;95.90
23124;DHT22;11731;48.592;8.858;2022-08-03T03:06:43;21.50;96.10
23124;DHT22;11731;48.592;8.858;2022-08-03T03:09:12;21.20;96.50
23124;DHT22;11731;48.592;8.858;2022-08-03T03:11:39;21.30;96.40
23124;DHT22;11731;48.592;8.858;2022-08-03T03:14:08;21.40;96.60
23124;DHT22;11731;48.592;8.858;2022-08-03T03:16:39;21.50;96.50
23124;DHT22;11731;48.592;8.858;2022-08-03T03:19:06;21.50;97.00
23124;DHT22;11731;48.592;8.858;2022-08-03T03:21:34;21.40;96.80
23124;DHT22;11731;48.592;8.858;2022-08-03T03:24:03;21.40;96.80
23124;DHT22;11731;48.592;8.858;2022-08-03T03:26:32;21.40;96.60
23124;DHT22;11731;48.592;8.858;2022-08-03T03:29:00;21.50;96.40
23124;DHT22;11731;48.592;8.858;2022-08-03T03:31:27;21.50;96.20
23124;DHT22;11731;48.592;8.858;2022-08-03T03:33:56;21.30;96.50
23124;DHT22;11731;48.592;8.858;2022-08-03T03:36:23;21.20;96.70
23124;DHT22;11731;48.592;8.858;2022-08-03T03:38:50;21.10;96.60
23124;DHT22;11731;48.592;8.858;2022-08-03T03:41:17;21.10;96.60
23124;DHT22;11731;48.592;8.858;2022-08-03T03:43:45;21.10;96.60
23124;DHT22;11731;48.592;8.858;2022-08-03T03:46:13;21.20;96.50
23124;DHT22;11731;48.592;8.858;2022-08-03T03:48:40;21.40;96.20
23124;DHT22;11731;48.592;8.858;2022-08-03T03:51:07;21.40;96.20
23124;DHT22;11731;48.592;8.858;2022-08-03T03:53:35;21.40;96.30
23124;DHT22;11731;48.592;8.858;2022-08-03T03:56:02;21.50;96.30
23124;DHT22;11731;48.592;8.858;2022-08-03T03:58:31;21.50;96.20
23124;DHT22;11731;48.592;8.858;2022-08-03T04:00:59;21.40;96.30
23124;DHT22;11731;48.592;8.858;2022-08-03T04:03:26;21.40;96.40
23124;DHT22;11731;48.592;8.858;2022-08-03T04:05:53;21.30;96.30
23124;DHT22;11731;48.592;8.858;2022-08-03T04:08:39;21.30;96.50
23124;DHT22;11731;48.592;8.858;2022-08-03T04:11:26;21.30;96.40
23124;DHT22;11731;48.592;8.858;2022-08-03T04:13:56;21.30;96.50
23124;DHT22;11731;48.592;8.858;2022-08-03T04:16:27;21.30;96.50
23124;DHT22;11731;48.592;8.858;2022-08-03T04:18:59;21.40;97.10
23124;DHT22;11731;48.592;8.858;2022-08-03T04:21:27;21.30;96.40
23124;DHT22;11731;48.592;8.858;2022-08-03T04:23:59;21.40;96.60
23124;DHT22;11731;48.592;8.858;2022-08-03T04:26:29;21.40;96.60
23124;DHT22;11731;48.592;8.858;2022-08-03T04:28:58;21.40;96.70
23124;DHT22;11731;48.592;8.858;2022-08-03T04:31:27;21.40;96.60
23124;DHT22;11731;48.592;8.858;2022-08-03T04:33:56;21.40;96.60
23124;DHT22;11731;48.592;8.858;2022-08-03T04:36:25;21.40;96.70
23124;DHT22;11731;48.592;8.858;2022-08-03T04:38:58;21.40;96.70
23124;DHT22;11731;48.592;8.858;2022-08-03T04:41:27;21.40;96.90
23124;DHT22;11731;48.592;8.858;2022-08-03T04:43:56;21.40;96.90
23124;DHT22;11731;48.592;8.858;2022-08-03T04:46:27;21.40;96.90
23124;DHT22;11731;48.592;8.858;2022-08-03T04:48:55;21.50;96.90
23124;DHT22;11731;48.592;8.858;2022-08-03T04:51:23;21.60;97.00
23124;DHT22;11731;48.592;8.858;2022-08-03T04:53:51;21.60;96.70
23124;DHT22;11731;48.592;8.858;2022-08-03T04:56:18;21.50;96.60
23124;DHT22;11731;48.592;8.858;2022-08-03T04:58:45;21.70;96.70
23124;DHT22;11731;48.592;8.858;2022-08-03T05:01:12;21.60;96.50
23124;DHT22;11731;48.592;8.858;2022-08-03T05:03:40;21.60;96.50
23124;DHT22;11731;48.592;8.858;2022-08-03T05:06:07;21.70;96.40
23124;DHT22;11731;48.592;8.858;2022-08-03T05:08:34;21.80;96.40
23124;DHT22;11731;48.592;8.858;2022-08-03T05:11:01;21.90;96.50
23124;DHT22;11731;48.592;8.858;2022-08-03T05:13:28;21.80;96.50
23124;DHT22;11731;48.592;8.858;2022-08-03T05:15:55;21.90;96.50
23124;DHT22;11731;48.592;8.858;2022-08-03T05:18:22;22.00;96.90
23124;DHT22;11731;48.592;8.858;2022-08-03T05:20:50;22.10;96.80
23124;DHT22;11731;48.592;8.858;2022-08-03T05:23:17;22.20;97.00
23124;DHT22;11731;48.592;8.858;2022-08-03T05:25:44;22.30;97.00
23124;DHT22;11731;48.592;8.858;2022-08-03T05:28:11;22.30;97.10
23124;DHT22;11731;48.592;8.858;2022-08-03T05:30:38;22.40;97.10
23124;DHT22;11731;48.592;8.858;2022-08-03T05:33:05;22.40;97.10
23124;DHT22;11731;48.592;8.858;2022-08-03T05:35:32;22.60;97.00
23124;DHT22;11731;48.592;8.858;2022-08-03T05:38:02;22.50;97.10
23124;DHT22;11731;48.592;8.858;2022-08-03T05:40:29;22.70;97.20
23124;DHT22;11731;48.592;8.858;2022-08-03T05:42:56;22.60;97.10
23124;DHT22;11731;48.592;8.858;2022-08-03T05:45:25;22.60;97.30
23124;DHT22;11731;48.592;8.858;2022-08-03T05:47:52;22.70;97.30
23124;DHT22;11731;48.592;8.858;2022-08-03T05:50:19;22.80;97.20
23124;DHT22;11731;48.592;8.858;2022-08-03T05:52:46;22.70;97.40
23124;DHT22;11731;48.592;8.858;2022-08-03T05:55:15;22.70;97.30
23124;DHT22;11731;48.592;8.858;2022-08-03T05:57:42;22.50;98.00
23124;DHT22;11731;48.592;8.858;2022-08-03T06:00:12;22.50;98.10
23124;DHT22;11731;48.592;8.858;2022-08-03T06:02:39;22.30;98.40
23124;DHT22;11731;48.592;8.858;2022-08-03T06:05:07;22.40;98.40
23124;DHT22;11731;48.592;8.858;2022-08-03T06:07:34;22.60;98.10
23124;DHT22;11731;48.592;8.858;2022-08-03T06:10:02;22.90;97.80
23124;DHT22;11731;48.592;8.858;2022-08-03T06:12:30;22.90;97.60
23124;DHT22;11731;48.592;8.858;2022-08-03T06:15:00;22.80;97.50
23124;DHT22;11731;48.592;8.858;2022-08-03T06:17:27;22.70;97.70
23124;DHT22;11731;48.592;8.858;2022-08-03T06:19:54;22.70;97.60
23124;DHT22;11731;48.592;8.858;2022-08-03T06:22:21;22.80;97.20
23124;DHT22;11731;48.592;8.858;2022-08-03T06:24:48;23.10;96.90
23124;DHT22;11731;48.592;8.858;2022-08-03T06:27:15;23.20;96.60
23124;DHT22;11731;48.592;8.858;2022-08-03T06:29:43;23.40;96.30
23124;DHT22;11731;48.592;8.858;2022-08-03T06:32:10;23.40;95.80
23124;DHT22;11731;48.592;8.858;2022-08-03T06:34:37;23.60;95.90
23124;DHT22;11731;48.592;8.858;2022-08-03T06:37:04;23.60;95.90
23124;DHT22;11731;48.592;8.858;2022-08-03T06:39:31;23.80;95.80
23124;DHT22;11731;48.592;8.858;2022-08-03T06:41:58;23.90;95.80
23124;DHT22;11731;48.592;8.858;2022-08-03T06:44:24;23.90;95.60
23124;DHT22;11731;48.592;8.858;2022-08-03T06:46:53;24.00;95.50
23124;DHT22;11731;48.592;8.858;2022-08-03T06:49:20;24.30;95.30
23124;DHT22;11731;48.592;8.858;2022-08-03T06:51:47;24.40;95.00
23124;DHT22;11731;48.592;8.858;2022-08-03T06:54:15;24.40;95.10
23124;DHT22;11731;48.592;8.858;2022-08-03T06:56:56;24.40;95.00
23124;DHT22;11731;48.592;8.858;2022-08-03T06:59:23;24.50;95.00
23124;DHT22;11731;48.592;8.858;2022-08-03T07:01:50;24.50;94.80
23124;DHT22;11731;48.592;8.858;2022-08-03T07:04:18;24.80;94.80
23124;DHT22;11731;48.592;8.858;2022-08-03T07:06:45;24.90;94.30
23124;DHT22;11731;48.592;8.858;2022-08-03T07:09:11;24.50;95.00
23124;DHT22;11731;48.592;8.858;2022-08-03T07:11:38;24.40;94.90
23124;DHT22;11731;48.592;8.858;2022-08-03T07:14:05;24.50;95.00
23124;DHT22;11731;48.592;8.858;2022-08-03T07:16:32;24.80;94.70
23124;DHT22;11731;48.592;8.858;2022-08-03T07:18:59;24.80;94.60
23124;DHT22;11731;48.592;8.858;2022-08-03T07:21:27;25.00;94.50
23124;DHT22;11731;48.592;8.858;2022-08-03T07:23:54;25.30;93.80
23124;DHT22;11731;48.592;8.858;2022-08-03T07:26:21;25.50;93.60
23124;DHT22;11731;48.592;8.858;2022-08-03T07:28:48;25.80;93.20
23124;DHT22;11731;48.592;8.858;2022-08-03T07:31:15;25.80;93.20
23124;DHT22;11731;48.592;8.858;2022-08-03T07:33:42;25.90;93.30
23124;DHT22;11731;48.592;8.858;2022-08-03T07:36:08;26.10;92.80
23124;DHT22;11731;48.592;8.858;2022-08-03T07:38:37;25.90;93.30
23124;DHT22;11731;48.592;8.858;2022-08-03T07:41:04;26.10;92.90
23124;DHT22;11731;48.592;8.858;2022-08-03T07:43:31;26.40;92.50
23124;DHT22;11731;48.592;8.858;2022-08-03T07:45:57;26.50;92.50
23124;DHT22;11731;48.592;8.858;2022-08-03T07:48:24;26.40;92.20
23124;DHT22;11731;48.592;8.858;2022-08-03T07:50:51;26.60;92.00
23124;DHT22;11731;48.592;8.858;2022-08-03T07:53:18;26.80;91.80
23124;DHT22;11731;48.592;8.858;2022-08-03T07:55:47;27.10;91.20
23124;DHT22;11731;48.592;8.858;2022-08-03T07:58:14;27.10;91.30
23124;DHT22;11731;48.592;8.858;2022-08-03T08:00:42;27.20;91.20
23124;DHT22;11731;48.592;8.858;2022-08-03T08:03:10;27.10;91.10
23124;DHT22;11731;48.592;8.858;2022-08-03T08:05:37;27.10;91.00
23124;DHT22;11731;48.592;8.858;2022-08-03T08:08:05;27.20;90.90
23124;DHT22;11731;48.592;8.858;2022-08-03T08:10:32;27.30;91.10
23124;DHT22;11731;48.592;8.858;2022-08-03T08:13:01;27.50;90.40
23124;DHT22;11731;48.592;8.858;2022-08-03T08:15:28;27.60;90.40
23124;DHT22;11731;48.592;8.858;2022-08-03T08:17:57;27.70;90.20
23124;DHT22;11731;48.592;8.858;2022-08-03T08:20:27;27.40;90.60
23124;DHT22;11731;48.592;8.858;2022-08-03T08:22:55;27.60;90.10
23124;DHT22;11731;48.592;8.858;2022-08-03T08:25:22;27.90;89.90
23124;DHT22;11731;48.592;8.858;2022-08-03T08:27:49;28.20;89.10
23124;DHT22;11731;48.592;8.858;2022-08-03T08:30:19;28.30;88.40
23124;DHT22;11731;48.592;8.858;2022-08-03T08:32:47;28.30;88.70
23124;DHT22;11731;48.592;8.858;2022-08-03T08:35:14;28.50;88.30
23124;DHT22;11731;48.592;8.858;2022-08-03T08:37:41;28.70;87.20
23124;DHT22;11731;48.592;8.858;2022-08-03T08:40:10;28.80;85.90
23124;DHT22;11731;48.592;8.858;2022-08-03T08:42:38;29.00;85.40
23124;DHT22;11731;48.592;8.858;2022-08-03T08:45:06;29.10;84.80
23124;DHT22;11731;48.592;8.858;2022-08-03T08:47:37;29.20;84.80
23124;DHT22;11731;48.592;8.858;2022-08-03T08:50:05;29.40;84.90
23124;DHT22;11731;48.592;8.858;2022-08-03T08:52:33;29.40;84.90
23124;DHT22;11731;48.592;8.858;2022-08-03T08:55:03;29.60;84.50
23124;DHT22;11731;48.592;8.858;2022-08-03T08:57:33;29.70;82.90
23124;DHT22;11731;48.592;8.858;2022-08-03T09:00:05;29.60;83.80
23124;DHT22;11731;48.592;8.858;2022-08-03T09:02:35;29.70;83.50
23124;DHT22;11731;48.592;8.858;2022-08-03T09:05:03;29.80;83.70
23124;DHT22;11731;48.592;8.858;2022-08-03T09:07:30;29.80;83.20
23124;DHT22;11731;48.592;8.858;2022-08-03T09:09:57;29.90;83.90
23124;DHT22;11731;48.592;8.858;2022-08-03T09:12:24;30.00;82.70
23124;DHT22;11731;48.592;8.858;2022-08-03T09:14:51;30.10;82.20
23124;DHT22;11731;48.592;8.858;2022-08-03T09:17:20;30.40;81.80
23124;DHT22;11731;48.592;8.858;2022-08-03T09:20:04;30.50;81.20
23124;DHT22;11731;48.592;8.858;2022-08-03T09:22:32;30.70;81.50
23124;DHT22;11731;48.592;8.858;2022-08-03T09:25:01;30.70;81.30
23124;DHT22;11731;48.592;8.858;2022-08-03T09:27:28;30.90;80.70
23124;DHT22;11731;48.592;8.858;2022-08-03T09:30:12;31.10;79.80
23124;DHT22;11731;48.592;8.858;2022-08-03T09:32:39;30.80;80.00
23124;DHT22;11731;48.592;8.858;2022-08-03T09:35:08;30.60;81.00
23124;DHT22;11731;48.592;8.858;2022-08-03T09:37:34;30.90;81.30
23124;DHT22;11731;48.592;8.858;2022-08-03T09:40:02;30.50;82.00
23124;DHT22;11731;48.592;8.858;2022-08-03T09:42:29;30.30;81.90
23124;DHT22;11731;48.592;8.858;2022-08-03T09:44:56;30.50;81.20
23124;DHT22;11731;48.592;8.858;2022-08-03T09:47:28;30.40;81.50
23124;DHT22;11731;48.592;8.858;2022-08-03T09:49:59;30.10;82.30
23124;DHT22;11731;48.592;8.858;2022-08-03T09:52:32;30.40;81.20
23124;DHT22;11731;48.592;8.858;2022-08-03T09:55:14;30.60;79.70
23124;DHT22;11731;48.592;8.858;2022-08-03T09:57:43;30.60;77.50
23124;DHT22;11731;48.592;8.858;2022-08-03T10:00:17;31.10;75.50
23124;DHT22;11731;48.592;8.858;2022-08-03T10:02:44;31.60;75.70
23124;DHT22;11731;48.592;8.858;2022-08-03T10:05:15;31.80;74.40
23124;DHT22;11731;48.592;8.858;2022-08-03T10:07:44;32.00;73.70
23124;DHT22;11731;48.592;8.858;2022-08-03T10:10:12;31.80;73.00
23124;DHT22;11731;48.592;8.858;2022-08-03T10:12:40;31.60;70.70
23124;DHT22;11731;48.592;8.858;2022-08-03T10:15:08;31.50;70.90
23124;DHT22;11731;48.592;8.858;2022-08-03T10:17:35;31.60;70.80
23124;DHT22;11731;48.592;8.858;2022-08-03T10:20:04;31.70;70.80
23124;DHT22;11731;48.592;8.858;2022-08-03T10:22:33;31.70;72.00
23124;DHT22;11731;48.592;8.858;2022-08-03T10:25:06;32.00;71.00
23124;DHT22;11731;48.592;8.858;2022-08-03T10:27:37;32.30;69.80
23124;DHT22;11731;48.592;8.858;2022-08-03T10:30:06;32.10;70.80
23124;DHT22;11731;48.592;8.858;2022-08-03T10:32:39;32.20;71.30
23124;DHT22;11731;48.592;8.858;2022-08-03T10:35:08;32.00;72.40
23124;DHT22;11731;48.592;8.858;2022-08-03T10:37:40;31.70;73.50
23124;DHT22;11731;48.592;8.858;2022-08-03T10:40:12;31.80;72.70
23124;DHT22;11731;48.592;8.858;2022-08-03T10:42:51;31.80;74.70
23124;DHT22;11731;48.592;8.858;2022-08-03T10:48:41;32.10;72.20
23124;DHT22;11731;48.592;8.858;2022-08-03T10:51:09;32.40;72.40
23124;DHT22;11731;48.592;8.858;2022-08-03T10:53:38;32.70;70.70
23124;DHT22;11731;48.592;8.858;2022-08-03T10:56:37;32.60;71.50
23124;DHT22;11731;48.592;8.858;2022-08-03T10:59:56;32.70;71.50
23124;DHT22;11731;48.592;8.858;2022-08-03T11:03:03;32.90;70.60
23124;DHT22;11731;48.592;8.858;2022-08-03T11:05:32;32.80;70.50
23124;DHT22;11731;48.592;8.858;2022-08-03T11:08:20;32.70;70.20
23124;DHT22;11731;48.592;8.858;2022-08-03T11:10:48;32.40;71.00
23124;DHT22;11731;48.592;8.858;2022-08-03T11:13:18;32.20;71.40
23124;DHT22;11731;48.592;8.858;2022-08-03T11:15:47;32.30;71.20
23124;DHT22;11731;48.592;8.858;2022-08-03T11:18:16;32.50;71.00
23124;DHT22;11731;48.592;8.858;2022-08-03T11:20:45;32.90;69.60
23124;DHT22;11731;48.592;8.858;2022-08-03T11:23:15;33.20;70.40
23124;DHT22;11731;48.592;8.858;2022-08-03T11:29:30;32.90;70.70
23124;DHT22;11731;48.592;8.858;2022-08-03T11:31:57;32.60;71.00
23124;DHT22;11731;48.592;8.858;2022-08-03T11:34:24;32.40;71.50
23124;DHT22;11731;48.592;8.858;2022-08-03T11:37:20;32.40;71.10
23124;DHT22;11731;48.592;8.858;2022-08-03T11:39:50;32.40;71.00
23124;DHT22;11731;48.592;8.858;2022-08-03T11:42:37;32.20;69.20
23124;DHT22;11731;48.592;8.858;2022-08-03T11:45:23;32.30;69.60
23124;DHT22;11731;48.592;8.858;2022-08-03T11:47:53;32.60;68.40
23124;DHT22;11731;48.592;8.858;2022-08-03T11:50:21;32.70;69.90
23124;DHT22;11731;48.592;8.858;2022-08-03T11:52:49;32.80;69.10
23124;DHT22;11731;48.592;8.858;2022-08-03T11:56:42;33.10;68.40
23124;DHT22;11731;48.592;8.858;2022-08-03T11:58:35;33.20;67.80
23124;DHT22;11731;48.592;8.858;2022-08-03T12:01:04;33.50;67.40
23124;DHT22;11731;48.592;8.858;2022-08-03T12:03:48;33.80;68.40
23124;DHT22;11731;48.592;8.858;2022-08-03T12:06:17;34.00;67.00
23124;DHT22;11731;48.592;8.858;2022-08-03T12:08:45;34.30;66.60
23124;DHT22;11731;48.592;8.858;2022-08-03T12:11:14;34.20;66.10
23124;DHT22;11731;48.592;8.858;2022-08-03T12:13:42;34.20;65.80
23124;DHT22;11731;48.592;8.858;2022-08-03T12:16:16;34.30;65.30
23124;DHT22;11731;48.592;8.858;2022-08-03T12:18:54;34.30;65.20
23124;DHT22;11731;48.592;8.858;2022-08-03T12:21:21;34.00;66.60
23124;DHT22;11731;48.592;8.858;2022-08-03T12:24:16;34.00;65.80
23124;DHT22;11731;48.592;8.858;2022-08-03T12:26:47;34.20;65.60
23124;DHT22;11731;48.592;8.858;2022-08-03T12:29:38;34.10;65.20
23124;DHT22;11731;48.592;8.858;2022-08-03T12:32:06;34.00;65.40
23124;DHT22;11731;48.592;8.858;2022-08-03T12:34:46;34.30;64.40
23124;DHT22;11731;48.592;8.858;2022-08-03T12:40:31;34.70;63.40
23124;DHT22;11731;48.592;8.858;2022-08-03T12:43:09;34.90;62.70
23124;DHT22;11731;48.592;8.858;2022-08-03T12:45:42;34.90;63.00
23124;DHT22;11731;48.592;8.858;2022-08-03T12:48:14;34.80;63.00
23124;DHT22;11731;48.592;8.858;2022-08-03T12:50:43;34.70;64.70
23124;DHT22;11731;48.592;8.858;2022-08-03T12:53:27;35.10;63.90
23124;DHT22;11731;48.592;8.858;2022-08-03T12:56:00;35.10;63.40
23124;DHT22;11731;48.592;8.858;2022-08-03T12:58:29;35.00;63.90
23124;DHT22;11731;48.592;8.858;2022-08-03T13:01:05;34.70;63.30
23124;DHT22;11731;48.592;8.858;2022-08-03T13:03:40;34.70;63.30
23124;DHT22;11731;48.592;8.858;2022-08-03T13:06:10;34.80;64.30
23124;DHT22;11731;48.592;8.858;2022-08-03T13:08:38;34.60;64.00
23124;DHT22;11731;48.592;8.858;2022-08-03T13:11:45;34.00;65.20
23124;DHT22;11731;48.592;8.858;2022-08-03T13:17:26;34.20;63.70
23124;DHT22;11731;48.592;8.858;2022-08-03T13:20:30;34.50;63.80
23124;DHT22;11731;48.592;8.858;2022-08-03T13:22:50;34.70;62.70
23124;DHT22;11731;48.592;8.858;2022-08-03T13:25:17;34.50;64.10
23124;DHT22;11731;48.592;8.858;2022-08-03T13:27:45;34.10;65.80
23124;DHT22;11731;48.592;8.858;2022-08-03T13:30:13;34.30;65.00
23124;DHT22;11731;48.592;8.858;2022-08-03T13:32:40;34.20;64.30
23124;DHT22;11731;48.592;8.858;2022-08-03T13:35:09;34.10;63.20
23124;DHT22;11731;48.592;8.858;2022-08-03T13:37:41;34.00;63.50
23124;DHT22;11731;48.592;8.858;2022-08-03T13:40:09;34.50;63.30
23124;DHT22;11731;48.592;8.858;2022-08-03T13:42:36;34.70;63.80
23124;DHT22;11731;48.592;8.858;2022-08-03T13:45:04;35.10;62.30
23124;DHT22;11731;48.592;8.858;2022-08-03T13:50:48;35.40;62.60
23124;DHT22;11731;48.592;8.858;2022-08-03T13:53:15;35.50;62.10
23124;DHT22;11731;48.592;8.858;2022-08-03T13:55:42;35.40;63.30
23124;DHT22;11731;48.592;8.858;2022-08-03T13:58:09;35.50;61.70
23124;DHT22;11731;48.592;8.858;2022-08-03T14:00:37;35.50;61.40
23124;DHT22;11731;48.592;8.858;2022-08-03T14:03:04;35.50;62.70
23124;DHT22;11731;48.592;8.858;2022-08-03T14:05:32;35.30;62.40
23124;DHT22;11731;48.592;8.858;2022-08-03T14:08:00;35.50;62.60
23124;DHT22;11731;48.592;8.858;2022-08-03T14:10:28;35.80;62.20
23124;DHT22;11731;48.592;8.858;2022-08-03T14:12:55;35.60;63.40
23124;DHT22;11731;48.592;8.858;2022-08-03T14:15:25;35.70;63.00
23124;DHT22;11731;48.592;8.858;2022-08-03T14:17:53;35.60;61.40
23124;DHT22;11731;48.592;8.858;2022-08-03T14:20:20;35.50;62.10
23124;DHT22;11731;48.592;8.858;2022-08-03T14:22:46;35.60;61.50
23124;DHT22;11731;48.592;8.858;2022-08-03T14:25:15;35.60;61.20
23124;DHT22;11731;48.592;8.858;2022-08-03T14:27:42;35.40;61.20
23124;DHT22;11731;48.592;8.858;2022-08-03T14:30:09;35.10;61.10
23124;DHT22;11731;48.592;8.858;2022-08-03T14:32:36;35.10;62.00
23124;DHT22;11731;48.592;8.858;2022-08-03T14:35:04;35.00;62.40
23124;DHT22;11731;48.592;8.858;2022-08-03T14:37:31;34.90;63.10
23124;DHT22;11731;48.592;8.858;2022-08-03T14:39:59;35.20;61.80
23124;DHT22;11731;48.592;8.858;2022-08-03T14:42:27;35.20;62.90
23124;DHT22;11731;48.592;8.858;2022-08-03T14:44:54;35.20;62.50
23124;DHT22;11731;48.592;8.858;2022-08-03T14:47:21;35.30;61.90
23124;DHT22;11731;48.592;8.858;2022-08-03T14:49:48;35.50;62.00
23124;DHT22;11731;48.592;8.858;2022-08-03T14:52:15;35.90;60.60
23124;DHT22;11731;48.592;8.858;2022-08-03T14:54:42;36.10;60.60
23124;DHT22;11731;48.592;8.858;2022-08-03T14:57:10;36.10;60.40
23124;DHT22;11731;48.592;8.858;2022-08-03T14:59:39;36.40;60.70
23124;DHT22;11731;48.592;8.858;2022-08-03T15:02:06;36.50;60.20
23124;DHT22;11731;48.592;8.858;2022-08-03T15:04:33;36.80;60.20
23124;DHT22;11731;48.592;8.858;2022-08-03T15:07:08;36.90;59.60
23124;DHT22;11731;48.592;8.858;2022-08-03T15:09:35;36.90;59.20
23124;DHT22;11731;48.592;8.858;2022-08-03T15:12:04;36.60;59.30
23124;DHT22;11731;48.592;8.858;2022-08-03T15:14:31;36.50;59.80
23124;DHT22;11731;48.592;8.858;2022-08-03T15:17:02;36.60;60.50
23124;DHT22;11731;48.592;8.858;2022-08-03T15:19:29;36.90;59.60
23124;DHT22;11731;48.592;8.858;2022-08-03T15:21:56;37.20;58.50
23124;DHT22;11731;48.592;8.858;2022-08-03T15:24:23;36.90;59.10
23124;DHT22;11731;48.592;8.858;2022-08-03T15:26:50;36.90;59.60
23124;DHT22;11731;48.592;8.858;2022-08-03T15:29:17;36.60;60.00
23124;DHT22;11731;48.592;8.858;2022-08-03T15:31:55;36.60;59.90
23124;DHT22;11731;48.592;8.858;2022-08-03T15:34:39;36.50;60.40
23124;DHT22;11731;48.592;8.858;2022-08-03T15:37:13;35.90;60.80
23124;DHT22;11731;48.592;8.858;2022-08-03T15:42:33;36.50;59.80
23124;DHT22;11731;48.592;8.858;2022-08-03T15:45:19;36.30;58.70
23124;DHT22;11731;48.592;8.858;2022-08-03T15:47:50;36.60;58.20
23124;DHT22;11731;48.592;8.858;2022-08-03T15:50:27;36.00;59.10
23124;DHT22;11731;48.592;8.858;2022-08-03T15:53:00;36.00;60.00
23124;DHT22;11731;48.592;8.858;2022-08-03T15:59:11;36.60;61.00
23124;DHT22;11731;48.592;8.858;2022-08-03T16:01:40;36.90;60.60
23124;DHT22;11731;48.592;8.858;2022-08-03T16:04:31;37.10;60.40
23124;DHT22;11731;48.592;8.858;2022-08-03T16:10:25;37.10;61.60
23124;DHT22;11731;48.592;8.858;2022-08-03T16:13:06;37.40;60.20
23124;DHT22;11731;48.592;8.858;2022-08-03T16:15:40;37.40;60.50
23124;DHT22;11731;48.592;8.858;2022-08-03T16:18:13;37.40;61.60
23124;DHT22;11731;48.592;8.858;2022-08-03T16:20:51;37.30;60.80